Overview Statistics Trail Chart Weather Telemetry Raw packets
 

This is the latest recevied weather packets stored in our database for station/object W5CDN. If no packets are shown the sender has not sent any weather packets the latest 10 day(s).

<< 55 56 57 58 59 60 61 >>
Time Temp. Humidity Pressure Rain* Wind** Luminosity Snow
1788033836 37.22° C 40% 1014.5 hPa 0 mm - - -
1788033536 37.78° C 39% 1014.6 hPa 0 mm - - -
1788033236 37.22° C 38% 1014.5 hPa 0 mm - - -
1788032936 36.11° C 40% 1014.9 hPa 0 mm - - -
1788032636 36.67° C 39% 1014.8 hPa 0 mm - - -
1788032336 36.67° C 39% 1014.9 hPa 0 mm - - -
1788032036 37.22° C 40% 1015 hPa 0 mm - - -
1788031736 36.67° C 39% 1015 hPa 0 mm - - -
1788031436 37.22° C 38% 1015 hPa 0 mm - - -
1788031136 37.22° C 39% 1015.3 hPa 0 mm - - -
1788030836 36.67° C 40% 1015.4 hPa 0 mm - - -
1788030536 36.11° C 42% 1015.4 hPa 0 mm - - -
1788030236 35.56° C 40% 1015.4 hPa 0 mm - - -
1788029936 35° C 43% 1015.7 hPa 0 mm - - -
1788029636 35° C 43% 1015.8 hPa 0 mm - - -
1788029336 36.11° C 42% 1015.6 hPa 0 mm - - -
1788029036 35.56° C 42% 1015.8 hPa 0 mm - - -
1788028736 35° C 43% 1015.8 hPa 0 mm - - -
1788028436 35.56° C 44% 1015.7 hPa 0 mm - - -
1788028136 37.22° C 42% 1015.9 hPa 0 mm - - -
1788027836 36.11° C 43% 1015.9 hPa 0 mm - - -
1788027536 36.11° C 42% 1016.1 hPa 0 mm - - -
1788027236 35° C 46% 1016.2 hPa 0 mm - - -
1788026936 36.67° C 43% 1016.2 hPa 0 mm - - -
1788026636 36.11° C 44% 1016.1 hPa 0 mm - - -

* Rain latest hour (hover to see other rain measurements)
** Current wind speed in m/s (hover to see current wind gust speed)